Date,TemperatureHighF,TemperatureAvgF,TemperatureLowF,DewpointHighF,DewpointAvgF,DewpointLowF,HumidityHigh,HumidityAvg,HumidityLow,PressureMaxIn,PressureMinIn,WindSpeedMaxMPH,WindSpeedAvgMPH,GustSpeedMaxMPH,PrecipitationSumIn
2013-1-1,15.6,7.7,-3.3,11.1,2.0,-6.5,92,78,51,30.05,29.88,12,3,12,0.00
2013-1-2,18.1,15.1,12.2,14.4,12.5,10.3,94,89,84,29.91,29.83,12,3,12,0.00
2013-1-3,23.0,17.3,13.3,17.5,12.7,7.3,96,82,59,29.99,29.75,18,5,18,0.00
2013-1-4,35.1,23.2,12.7,21.0,15.0,8.7,89,72,48,30.00,29.77,15,4,16,0.00
2013-1-5,32.2,23.9,16.5,23.9,18.3,14.8,94,80,52,30.01,29.73,17,2,17,0.00
2013-1-6,25.7,21.3,14.4,24.9,19.4,10.4,99,92,81,30.06,29.77,13,3,13,0.00
2013-1-7,37.2,26.8,14.9,23.2,18.5,6.9,84,71,54,29.94,29.67,20,8,20,0.00
2013-1-8,38.5,28.0,14.5,28.8,22.0,13.4,96,79,52,29.92,29.61,20,5,20,0.00
2013-1-9,33.1,29.4,21.2,28.1,21.6,15.8,84,73,59,30.25,29.65,23,6,23,0.00
2013-1-10,79.7,31.6,19.9,77.6,14.9,5.0,96,56,21,30.25,29.68,21,8,21,0.07
2013-1-11,40.5,34.9,33.8,40.2,34.5,32.7,99,98,94,29.69,29.33,16,7,20,0.00
2013-1-12,43.0,25.6,11.7,42.5,20.9,5.7,99,82,72,29.87,29.28,16,8,22,0.00
2013-1-13,13.6,8.7,5.5,5.9,3.1,1.2,86,78,67,29.99,29.83,8,4,9,0.00
2013-1-14,9.1,4.9,0.9,3.2,0.1,-3.0,87,80,71,30.19,30.00,8,3,9,0.00
2013-1-15,26.1,16.3,1.4,15.6,6.7,-2.7,87,67,41,30.16,29.68,14,6,14,0.00
2013-1-16,26.2,20.4,7.0,24.0,14.3,1.2,96,77,59,30.01,29.44,16,8,23,0.00
2013-1-17,8.1,2.4,-2.9,2.1,-3.5,-7.9,86,76,60,30.19,30.02,8,3,11,0.00
2013-1-18,20.3,11.4,-4.7,18.1,8.4,-9.0,97,87,79,30.16,29.63,9,2,14,0.00
2013-1-19,33.6,18.7,2.8,29.3,16.7,0.0,97,92,79,29.85,29.43,20,6,20,0.00
2013-1-20,4.3,-1.6,-6.5,1.4,-5.1,-10.7,88,84,81,30.08,29.85,10,4,13,0.00
2013-1-21,-6.5,-12.7,-16.2,-10.8,-17.9,-21.6,81,76,73,30.01,29.94,11,5,11,0.00
2013-1-22,0.9,-9.7,-18.9,-5.2,-15.3,-24.7,77,75,73,30.13,30.00,4,1,5,0.00
2013-1-23,6.6,-2.7,-13.7,0.8,-7.2,-19.2,85,80,74,30.33,29.91,8,1,11,0.00
2013-1-24,8.6,0.5,-8.5,5.9,-4.1,-13.1,88,80,74,30.46,30.07,6,0,8,0.00
2013-1-25,19.2,10.5,5.4,13.2,6.8,1.7,88,84,73,30.05,29.78,8,1,11,0.00
2013-1-26,20.5,13.7,7.0,11.7,7.7,4.0,88,77,65,30.21,30.05,14,2,15,0.00
2013-1-27,31.5,24.3,16.0,27.0,17.3,8.3,99,75,56,30.07,29.76,14,6,14,0.00
2013-1-28,37.0,29.3,24.3,30.5,26.8,23.6,99,91,72,29.81,29.64,5,0,6,0.00
2013-1-29,33.4,31.3,29.1,33.2,30.8,27.6,99,98,93,29.60,29.42,8,0,8,0.00
2013-1-30,30.6,30.6,30.6,30.3,30.3,30.3,99,99,99,29.58,29.41,0,0,0,0.00
2013-1-31,30.6,30.6,30.6,30.3,30.3,30.3,99,99,99,29.50,29.46,0,0,0,0.00
2013-2-1,33.6,30.9,25.3,28.7,23.2,18.1,84,73,60,30.04,29.45,16,7,16,0.00
2013-2-2,42.4,30.7,20.1,18.2,13.2,6.1,84,54,22,30.08,29.70,15,7,15,0.00
2013-2-3,39.7,35.9,33.6,38.4,34.6,17.0,99,96,44,29.67,29.24,17,6,17,0.04
2013-2-4,43.0,29.5,13.3,42.5,25.7,6.1,99,86,72,29.66,29.11,16,8,16,0.00
2013-2-5,13.1,9.6,6.1,6.4,3.5,1.1,86,76,66,29.75,29.65,8,3,8,0.00
2013-2-6,9.5,5.5,1.4,3.1,0.7,-1.8,87,80,71,30.02,29.77,8,4,8,0.00
2013-2-7,25.2,12.7,0.9,15.7,6.4,-3.1,87,77,41,30.01,29.77,11,6,13,0.00
2013-2-8,26.6,16.4,11.7,12.2,9.7,7.3,88,75,52,30.10,29.99,8,3,11,0.00
2013-2-9,29.7,19.2,13.1,17.3,13.8,6.1,94,80,59,30.00,29.77,13,5,20,0.00
2013-2-10,31.1,25.6,18.9,30.4,24.2,17.5,97,94,90,29.77,29.06,12,4,20,0.00
2013-2-11,30.7,24.3,17.8,30.0,22.9,15.9,98,94,89,29.64,29.04,6,2,8,0.00
2013-2-12,23.5,19.6,16.0,20.1,16.4,12.0,92,87,80,29.67,29.44,8,2,8,0.00
2013-2-13,41.0,28.2,19.9,26.6,22.2,17.5,92,79,53,29.45,29.35,7,2,10,0.04
2013-2-14,26.4,20.8,15.3,22.4,15.7,6.8,91,80,67,29.77,29.40,14,5,21,0.00
2013-2-15,15.4,10.2,5.4,11.6,4.8,-1.7,89,78,56,29.89,29.76,9,3,11,0.00
2013-2-16,17.4,3.8,-11.7,7.4,-1.1,-16.2,85,79,64,29.87,29.82,6,0,11,0.00
2013-2-17,23.9,8.6,-13.2,8.4,-1.6,-17.9,83,64,42,29.85,29.51,18,6,23,0.00
2013-2-18,32.0,24.6,18.1,25.3,19.1,9.1,97,80,67,29.50,29.24,15,6,21,0.01
2013-2-19,20.1,7.4,3.6,18.7,4.5,-0.3,94,87,83,29.90,29.31,12,6,17,0.00
2013-2-20,13.6,6.9,-5.3,8.7,3.3,-8.9,88,84,78,30.16,29.91,8,2,13,0.00
2013-2-21,27.1,13.7,-2.7,15.9,9.6,-6.5,93,84,62,30.18,29.89,15,4,17,0.00
2013-2-22,25.2,21.2,17.6,22.4,18.6,15.6,94,90,83,29.89,29.53,11,4,13,0.00
2013-2-23,30.7,23.8,16.2,25.7,21.3,14.5,95,90,78,29.63,29.50,4,1,8,0.00
2013-2-24,30.6,23.9,14.9,29.1,22.1,13.3,95,93,75,29.82,29.63,4,0,4,0.00
2013-2-25,34.0,27.0,17.1,31.0,24.7,15.4,94,91,79,29.85,29.78,5,1,8,0.01
2013-2-26,23.2,15.7,12.6,22.0,14.2,10.7,95,93,92,29.83,29.77,2,0,2,0.00
2013-2-27,28.4,18.3,15.6,24.8,15.7,4.1,93,90,41,30.01,29.81,22,3,25,3.64
2013-2-28,26.1,21.9,18.5,23.1,17.6,13.6,92,83,74,30.20,29.94,21,11,24,0.00
2013-3-1,25.7,18.0,9.9,14.5,10.5,4.9,87,73,41,30.29,30.20,14,7,20,0.00
2013-3-2,24.1,13.9,0.1,10.5,6.6,-3.2,89,73,48,30.26,30.11,11,2,13,0.00
2013-3-3,29.7,12.4,-8.5,13.3,3.4,-12.8,85,69,33,30.12,30.02,8,1,10,0.00
2013-3-4,36.1,22.2,8.8,16.8,7.3,0.6,79,56,22,30.08,30.00,11,4,13,0.00
2013-3-5,26.6,22.2,20.1,19.6,15.4,7.0,93,75,52,30.18,30.02,13,6,17,0.00
2013-3-6,30.0,21.2,16.2,17.6,14.7,10.2,92,77,52,30.27,30.18,9,3,11,0.00
2013-3-7,34.3,21.6,13.3,17.2,14.2,10.6,89,74,47,30.34,30.25,9,1,9,0.00
2013-3-8,44.2,30.5,18.5,25.3,19.3,11.9,76,64,45,30.31,30.14,13,6,14,0.00
2013-3-9,34.5,31.7,28.4,32.2,27.7,20.1,98,85,67,30.14,29.74,12,7,17,0.08
2013-3-10,32.9,31.2,30.2,32.4,29.4,28.3,99,93,89,29.91,29.74,3,0,6,0.02
2013-3-11,31.1,27.3,18.1,28.3,24.7,16.4,93,89,87,29.91,29.66,0,0,0,0.00
2013-3-12,21.9,18.3,16.2,18.0,15.6,10.2,93,89,76,29.99,29.67,0,0,0,0.00
2013-3-13,29.8,18.4,9.0,9.8,5.3,-2.6,78,59,24,30.20,29.99,13,2,15,0.19
2013-3-14,38.7,23.1,3.9,26.1,13.6,0.5,89,69,35,30.18,29.92,11,3,11,0.01
2013-3-15,32.2,22.7,12.7,26.1,15.4,5.8,86,74,58,29.96,29.89,16,6,19,0.00
2013-3-16,22.8,14.7,6.3,13.2,7.0,-1.1,88,72,56,30.12,29.92,11,4,14,0.00
2013-3-17,27.5,16.0,6.4,6.2,-0.9,-5.2,73,49,25,30.18,29.92,16,5,17,0.00
2013-3-18,27.1,21.8,16.0,24.5,17.1,6.5,94,82,59,29.91,29.47,18,8,24,0.00
2013-3-19,25.0,16.5,10.9,16.7,9.8,4.4,91,76,43,29.89,29.47,14,8,17,0.00
2013-3-20,16.9,11.7,5.0,13.5,8.5,2.1,89,87,74,29.99,29.88,11,4,11,0.00
2013-3-21,25.9,15.8,3.6,16.4,10.7,0.4,90,80,53,29.98,29.95,6,1,8,0.00
2013-3-22,30.2,15.9,-0.2,21.4,11.4,-3.5,92,82,66,30.05,29.97,9,1,11,0.00
2013-3-23,29.3,22.8,9.5,22.6,18.3,7.4,95,83,70,30.12,30.04,7,1,11,0.00
2013-3-24,32.0,22.3,12.6,24.2,18.0,10.5,93,83,70,30.10,29.95,12,3,15,0.00
2013-3-25,32.0,24.6,15.8,24.1,20.1,14.2,96,84,62,30.13,29.95,15,4,17,0.00
2013-3-26,38.7,30.3,23.4,26.5,22.5,19.6,94,74,50,30.21,30.12,8,2,11,0.00
2013-3-27,40.6,31.8,19.6,22.8,16.3,11.8,78,55,31,30.26,30.21,10,2,13,0.00
2013-3-28,46.0,29.4,12.0,20.7,13.8,8.7,87,57,25,30.27,30.23,7,1,9,0.00
2013-3-29,53.6,36.1,15.4,22.0,16.4,10.1,83,50,19,30.25,30.07,7,1,8,0.00
2013-3-30,43.5,37.6,35.1,39.3,32.9,22.3,97,84,53,30.07,29.73,11,4,13,0.27
2013-3-31,36.9,30.6,21.2,34.1,20.2,6.1,94,66,47,29.91,29.62,14,6,24,0.01
2013-4-1,30.0,22.4,18.0,10.8,7.3,4.3,73,53,34,30.07,29.92,13,6,17,0.00
2013-4-2,33.8,24.1,16.0,15.6,9.2,3.4,79,55,27,30.26,30.07,11,3,13,0.00
2013-4-3,43.9,27.4,5.7,19.4,6.3,-2.0,84,46,15,30.34,29.97,15,5,17,0.00
2013-4-4,43.9,37.7,27.9,29.7,22.7,17.0,70,55,35,30.08,29.90,20,7,24,0.00
2013-4-5,41.9,30.6,17.6,24.7,15.3,4.9,85,56,21,30.22,30.04,7,1,9,0.00
2013-4-6,35.8,31.9,28.8,33.3,29.6,22.3,99,91,66,30.04,29.56,14,4,19,0.15
2013-4-7,43.5,34.3,28.6,32.3,28.7,27.2,99,82,55,29.90,29.61,8,1,8,0.24
2013-4-8,38.1,34.1,31.8,36.6,32.9,28.1,99,95,84,30.01,29.77,5,1,6,0.31
2013-4-9,36.7,32.7,30.0,32.5,26.3,13.2,99,80,43,30.17,30.00,15,5,21,0.01
2013-4-10,39.2,33.2,26.1,25.0,19.3,12.8,87,58,37,30.18,30.04,18,7,21,0.00
2013-4-11,31.6,28.1,24.6,23.6,20.6,13.5,95,74,51,30.04,29.76,21,10,25,0.00
2013-4-12,34.3,27.0,24.8,26.1,24.0,22.4,95,89,67,29.76,29.66,14,6,17,0.05
2013-4-13,34.2,26.4,15.6,26.1,21.5,13.3,96,83,58,29.93,29.71,14,2,14,0.07
2013-4-14,42.6,28.1,9.5,31.0,21.2,7.5,96,78,44,29.96,29.65,18,4,20,0.02
2013-4-15,41.7,35.9,32.5,33.3,28.9,24.6,97,77,54,29.82,29.55,17,6,19,0.22
2013-4-16,43.7,35.5,26.8,32.6,26.8,21.9,93,72,47,30.32,29.82,12,4,30,0.13
2013-4-17,42.1,32.6,25.2,30.0,26.5,21.9,93,79,53,30.35,30.00,11,3,12,0.00
2013-4-18,31.6,30.6,28.2,31.2,29.9,27.7,99,97,94,29.98,29.32,14,2,16,0.01
2013-4-19,28.2,23.4,20.1,27.5,21.9,17.9,98,94,86,29.86,29.25,0,0,0,0.00
2013-4-20,35.6,24.1,10.6,19.4,10.8,0.7,91,60,23,30.31,29.87,0,0,0,0.00
2013-4-21,38.5,31.8,20.7,31.9,24.0,12.0,92,73,55,30.32,30.05,14,5,29,0.13
2013-4-22,44.8,36.1,29.3,36.2,28.5,17.4,99,77,33,30.19,30.05,10,3,17,0.01
2013-4-23,39.6,30.0,19.6,30.2,25.6,17.4,98,85,50,30.06,29.96,8,3,17,0.06
2013-4-24,46.9,32.2,14.9,31.9,23.7,12.3,98,75,34,29.96,29.83,7,1,13,0.01
2013-4-25,48.7,37.7,28.4,32.3,25.3,13.2,98,66,25,30.14,29.87,6,2,11,0.02
2013-4-26,66.7,48.2,34.3,36.1,32.0,24.7,91,57,30,30.13,30.01,8,3,14,0.06
2013-4-27,71.1,58.2,33.8,42.1,35.2,30.7,90,47,23,30.12,29.92,5,1,9,0.00
2013-4-28,68.0,56.7,45.5,50.8,42.5,38.3,98,63,34,29.93,29.72,7,3,16,0.18
2013-4-29,72.1,56.3,39.7,52.2,44.0,38.4,99,69,30,29.81,29.67,4,1,10,0.02
2013-4-30,79.5,62.2,52.5,56.6,47.1,25.4,93,62,29,29.88,29.48,9,4,17,0.05
2013-5-1,54.0,38.8,30.2,39.1,32.3,27.6,98,81,36,30.42,29.90,4,1,8,0.18
2013-5-2,30.2,28.0,26.2,29.7,26.9,24.9,98,95,91,30.46,30.37,0,0,0,0.00
2013-5-3,29.8,27.7,26.2,29.1,26.5,25.2,97,95,92,30.38,30.17,0,0,0,0.00
2013-5-4,44.1,33.6,29.3,38.6,32.3,28.7,99,95,80,30.19,30.14,5,1,11,0.39
2013-5-5,53.4,38.3,31.3,41.2,34.4,30.7,99,87,61,30.18,30.10,4,1,9,0.00
2013-5-6,69.3,50.8,29.3,44.0,37.5,28.6,98,66,33,30.11,30.04,2,1,8,0.00
2013-5-7,76.1,59.5,36.9,46.1,37.8,32.3,95,52,21,30.09,29.99,4,1,11,0.00
2013-5-8,79.0,62.4,44.1,45.4,39.1,32.2,79,46,19,30.04,29.97,6,2,12,0.00
2013-5-9,53.6,40.6,34.5,41.5,36.7,28.6,96,87,63,30.15,29.99,6,3,14,0.38
2013-5-10,50.9,40.0,30.4,32.0,28.4,24.3,83,64,44,30.15,29.86,8,3,14,0.00
2013-5-11,43.2,35.8,31.5,33.0,28.8,24.6,96,76,52,30.03,29.81,8,4,20,0.06
2013-5-12,46.2,35.5,27.3,25.7,20.0,12.9,78,56,26,30.11,30.04,8,4,18,0.00
2013-5-13,58.1,45.0,25.0,30.3,20.6,10.1,84,43,16,30.11,29.72,10,3,17,0.00
2013-5-14,83.7,62.6,45.1,45.4,38.5,30.7,62,43,18,29.79,29.44,11,3,21,0.01
2013-5-15,75.6,63.7,52.5,46.1,38.4,26.3,73,43,16,29.84,29.56,8,3,17,0.00
2013-5-16,65.8,57.1,45.3,43.4,33.7,20.7,77,44,19,30.06,29.83,8,2,14,0.00
2013-5-17,74.1,60.4,47.8,50.4,39.0,32.0,74,48,24,30.12,30.02,6,2,11,0.00
2013-5-18,68.4,58.1,50.7,61.1,53.8,48.8,97,86,70,30.07,29.89,7,3,14,0.63
2013-5-19,83.3,68.8,50.5,65.8,59.4,47.8,99,75,42,29.90,29.72,6,3,14,0.37
2013-5-20,73.9,55.3,47.3,60.4,53.4,46.9,99,94,58,29.77,29.57,12,2,20,0.57
2013-5-21,59.0,47.2,39.9,51.5,44.8,39.7,99,92,73,29.77,29.59,8,2,8,0.40
2013-5-22,48.0,44.5,40.6,46.3,43.1,36.5,99,95,81,30.04,29.75,27,7,27,0.19
2013-5-23,51.4,40.6,34.3,36.5,29.5,24.0,86,67,35,30.33,30.04,24,8,24,0.00
2013-5-24,68.9,51.0,30.0,38.2,31.0,24.4,95,52,20,30.40,30.26,12,3,12,0.00
2013-5-25,69.3,57.3,44.2,43.1,36.1,30.5,77,48,26,30.34,30.25,11,4,11,0.00
2013-5-26,71.6,59.4,45.7,38.5,30.7,14.2,70,38,11,30.32,30.14,13,4,13,0.00
2013-5-27,71.2,58.5,45.3,40.1,35.4,31.0,71,44,23,30.18,29.93,14,5,14,0.00
2013-5-28,65.7,58.0,54.0,53.3,46.2,39.1,89,65,50,29.93,29.74,9,3,9,0.00
2013-5-29,83.7,67.2,55.9,62.9,55.1,45.6,94,69,27,29.84,29.73,13,4,13,0.00
2013-5-30,79.7,68.7,62.1,67.6,63.2,59.0,95,84,56,29.81,29.64,16,6,16,0.22
2013-5-31,81.1,66.1,55.0,64.6,56.9,50.3,91,75,36,29.69,29.59,25,7,25,0.28
2013-6-1,67.5,53.7,38.3,56.8,49.4,37.8,98,86,64,29.88,29.58,20,5,20,0.09
2013-6-2,59.2,45.8,37.8,38.9,37.0,33.4,99,75,39,30.03,29.88,16,4,16,0.12
2013-6-3,61.7,50.0,34.7,43.4,31.9,8.4,97,56,16,30.12,30.01,14,3,14,0.00
2013-6-4,65.3,54.9,42.6,47.6,40.5,31.2,74,59,34,30.18,30.10,11,3,11,0.00
2013-6-5,58.1,52.2,47.5,49.4,47.8,44.0,99,86,67,30.14,30.03,12,4,12,0.83
2013-6-6,59.0,51.1,47.3,48.5,47.1,44.8,98,87,68,30.05,30.01,13,3,13,0.06
2013-6-7,70.2,56.0,41.2,50.3,42.1,35.2,97,64,31,30.05,29.95,9,2,9,0.00
2013-6-8,74.1,61.5,50.2,52.3,47.4,42.6,94,63,34,30.01,29.94,12,2,12,0.01
2013-6-9,63.7,58.0,50.9,56.0,51.4,47.1,92,79,59,30.04,29.88,13,4,14,0.12
2013-6-10,78.3,65.5,58.6,63.0,58.0,54.6,92,77,55,29.88,29.82,14,3,14,0.00
2013-6-11,77.4,65.8,54.3,63.6,54.1,45.2,98,70,36,29.91,29.84,13,2,13,0.00
2013-6-12,81.9,66.6,50.0,52.6,46.9,40.1,91,54,24,29.92,29.81,14,3,14,0.00
2013-6-13,67.3,58.6,50.7,51.3,47.5,41.3,89,68,43,30.14,29.89,21,5,21,0.00
2013-6-14,78.6,63.4,45.9,58.1,45.9,31.3,96,61,20,30.17,29.97,8,2,8,0.04
2013-6-15,73.2,64.0,57.6,64.4,59.6,52.9,97,86,70,29.98,29.81,8,2,8,0.04
2013-6-16,80.6,64.9,52.5,59.5,52.5,44.2,99,70,29,29.92,29.82,24,2,24,0.15
2013-6-17,67.3,55.9,43.9,55.8,51.3,41.7,99,85,62,30.08,29.87,11,3,11,0.01
2013-6-18,71.6,57.0,37.0,46.8,39.4,30.3,98,58,22,30.16,30.07,13,3,13,0.00
2013-6-19,83.3,66.1,49.5,55.1,48.3,41.7,79,55,28,30.12,29.99,10,3,10,0.00
2013-6-20,74.8,65.6,60.1,64.9,60.1,54.9,99,83,68,30.09,30.03,9,4,9,0.72
2013-6-21,69.6,62.1,53.8,63.9,60.0,53.2,99,93,79,30.10,29.86,14,3,14,0.59
2013-6-22,72.7,64.4,54.0,65.5,61.4,53.7,99,90,76,30.09,29.92,14,3,14,0.02
2013-6-23,84.4,73.7,64.4,68.9,63.9,59.5,96,73,46,29.93,29.74,19,4,19,0.00
2013-6-24,86.7,75.4,62.8,65.7,60.6,52.2,95,64,32,29.93,29.82,9,2,9,0.00
2013-6-25,91.9,76.4,63.0,68.5,62.8,51.6,98,67,27,29.88,29.77,9,2,9,0.00
2013-6-26,86.7,70.6,61.3,71.8,65.8,58.9,98,86,53,29.80,29.69,14,3,14,0.50
2013-6-27,86.4,69.7,60.6,67.3,62.2,55.5,99,80,38,29.82,29.70,6,1,6,0.28
2013-6-28,67.3,61.5,54.5,62.3,58.7,53.7,99,91,74,29.81,29.68,13,2,13,0.08
2013-6-29,68.2,59.2,50.5,57.3,51.7,45.6,99,79,47,30.00,29.78,18,4,18,0.00
2013-6-30,79.7,57.6,45.5,55.1,49.0,38.1,96,77,24,30.13,29.99,13,1,13,0.01
2013-7-1,77.5,63.5,49.8,58.3,50.5,39.1,93,66,26,30.22,30.13,13,3,13,0.00
2013-7-2,79.2,61.5,43.0,52.0,43.1,30.9,95,57,24,30.20,30.10,11,2,11,0.00
2013-7-3,84.2,66.9,48.4,56.4,50.1,41.4,91,58,23,30.11,29.98,8,2,8,0.00
2013-7-4,85.6,71.9,58.8,60.5,56.8,45.3,92,63,27,30.01,29.91,10,4,10,0.00
2013-7-5,86.7,76.4,64.4,61.0,56.6,46.0,78,53,27,29.97,29.86,16,6,16,0.00
2013-7-6,89.1,76.8,69.3,70.7,62.9,58.9,87,63,40,29.93,29.88,11,5,11,0.00
2013-7-7,85.6,71.7,58.1,71.8,65.8,55.1,99,83,57,29.96,29.87,14,4,14,1.48
2013-7-8,77.7,62.9,52.9,66.0,59.6,52.6,99,90,61,30.02,29.92,8,1,11,0.74
2013-7-9,77.9,67.9,60.1,71.5,65.5,59.1,99,92,79,30.03,29.77,10,2,10,0.15
2013-7-10,73.9,64.3,56.5,61.1,55.2,51.3,99,75,46,30.03,29.85,9,2,11,0.01
2013-7-11,83.3,67.2,51.8,60.0,53.6,47.1,97,66,30,30.14,30.02,8,2,8,0.00
2013-7-12,83.8,71.9,61.3,62.6,57.6,53.8,84,63,38,30.09,29.96,17,6,17,0.00
2013-7-13,83.8,75.4,67.3,67.5,61.4,57.1,76,62,54,30.13,29.99,15,6,15,0.00
2013-7-14,86.5,73.5,64.2,65.4,62.1,56.9,96,70,37,30.23,30.12,11,3,11,0.40
2013-7-15,90.5,75.9,62.4,68.6,63.2,57.1,96,68,34,30.28,30.20,9,2,9,0.00
2013-7-16,92.1,80.6,70.5,74.3,69.6,66.7,96,71,45,30.22,30.14,9,3,9,0.08
2013-7-17,91.8,82.1,72.1,71.4,68.6,65.1,88,65,42,30.23,30.11,7,2,7,0.00
2013-7-18,91.9,79.2,69.3,73.9,69.4,66.3,98,75,45,30.12,29.81,13,3,13,0.27
2013-7-19,81.9,73.7,65.5,72.9,62.0,54.2,99,68,47,29.83,29.65,10,2,11,0.59
2013-7-20,68.4,61.0,50.2,56.4,47.8,35.8,85,64,36,30.05,29.83,12,3,12,0.00
2013-7-21,74.8,62.5,48.0,58.3,52.0,44.8,92,70,45,30.05,29.88,9,3,9,0.00
2013-7-22,82.8,66.9,59.0,71.1,60.5,51.6,95,81,60,29.89,29.63,15,5,15,0.01
2013-7-23,68.0,58.3,50.2,52.3,48.5,44.5,91,71,48,30.03,29.78,19,4,19,0.00
2013-7-24,75.2,59.4,46.9,56.4,50.7,45.9,99,76,45,30.08,29.99,7,1,7,0.00
2013-7-25,80.6,66.8,55.6,65.2,58.3,51.2,99,76,47,29.99,29.86,10,3,10,1.15
2013-7-26,63.7,53.9,44.6,60.2,52.9,44.3,99,96,83,30.03,29.88,17,3,17,0.11
2013-7-27,55.8,48.6,44.4,51.2,46.6,44.2,99,93,79,30.00,29.85,10,2,10,0.50
2013-7-28,54.5,51.0,46.0,53.9,50.2,45.2,99,97,86,30.04,29.87,10,2,10,0.15
2013-7-29,76.8,60.6,41.7,57.9,51.0,41.5,99,74,42,30.13,30.03,7,1,7,0.01
2013-7-30,71.4,64.1,57.2,60.3,57.5,53.3,93,80,62,30.15,30.06,11,3,11,0.00
2013-7-31,75.2,64.7,59.0,63.9,58.2,49.8,99,81,57,30.06,29.92,6,1,6,0.67
2013-8-1,73.9,60.1,55.8,57.2,52.6,50.3,85,76,50,29.96,29.85,5,1,5,0.00
2013-8-2,70.9,62.7,52.5,59.1,53.9,50.2,99,75,51,30.02,29.83,14,2,14,0.19
2013-8-3,70.3,60.2,48.2,55.9,51.6,47.4,99,75,54,30.19,30.02,14,2,14,0.00
2013-8-4,73.2,59.8,45.7,55.5,49.2,42.9,99,71,37,30.25,30.06,9,1,9,0.00
2013-8-5,67.3,59.7,53.6,62.6,56.6,49.8,99,90,84,30.06,29.81,9,3,9,0.44
2013-8-6,76.6,66.9,62.2,64.9,61.7,55.9,99,85,55,29.83,29.73,8,1,8,0.13
2013-8-7,68.7,61.3,52.2,60.5,53.0,40.0,99,77,39,30.02,29.73,11,2,11,0.01
2013-8-8,71.6,59.3,47.7,58.2,53.1,46.6,98,81,58,30.05,29.97,8,1,8,0.00
2013-8-9,68.2,60.3,54.1,56.2,52.9,49.8,98,79,54,30.00,29.95,4,1,4,0.00
2013-8-10,48.0,43.7,36.0,46.3,41.2,30.4,99,91,78,30.01,29.65,19,9,19,0.18
2013-8-11,74.8,64.2,34.9,59.1,54.1,24.8,92,71,36,30.19,29.88,15,1,15,0.00
2013-8-12,75.6,60.5,45.9,60.7,52.9,43.8,98,77,56,29.97,29.84,17,3,17,0.00
2013-8-13,63.1,53.6,43.9,53.9,45.6,41.4,99,76,48,30.07,29.97,14,2,14,0.00
2013-8-14,67.6,56.4,45.3,50.9,46.3,41.0,94,72,41,30.09,29.98,14,1,14,0.00
2013-8-15,76.1,61.6,46.9,57.4,50.4,45.2,95,70,41,30.00,29.95,9,1,10,0.00
2013-8-16,79.9,62.2,48.7,60.1,52.9,47.4,96,76,37,30.05,29.99,4,0,4,0.00
2013-8-17,79.0,67.1,53.4,60.0,54.8,52.0,98,69,41,30.09,29.98,10,2,10,0.00
2013-8-18,79.2,72.8,56.8,58.7,55.5,51.8,86,56,42,30.05,29.89,11,4,11,0.00
2013-8-19,82.9,71.4,63.1,67.5,62.0,56.4,84,73,56,29.91,29.79,8,3,8,0.00
2013-8-20,86.4,76.0,65.1,70.2,67.2,62.9,93,75,56,29.85,29.75,11,4,11,0.00
2013-8-21,85.6,73.8,60.6,75.1,68.6,59.5,99,84,65,29.91,29.71,11,3,14,0.39
2013-8-22,74.7,64.8,52.2,60.7,52.5,44.1,98,68,35,30.05,29.91,11,2,11,0.00
2013-8-23,79.7,65.5,50.2,60.5,53.2,48.4,95,68,39,30.08,29.96,9,3,9,0.00
2013-8-24,80.1,71.5,60.8,69.2,62.1,57.5,92,74,55,30.05,29.83,18,7,18,0.00
2013-8-25,93.2,82.3,74.5,74.3,71.1,68.8,85,70,49,29.88,29.81,14,5,14,0.02
2013-8-26,85.3,72.6,66.7,75.5,70.0,66.5,99,92,72,29.90,29.83,9,2,9,1.57
2013-8-28,84.4,72.9,61.5,70.2,66.1,61.2,99,82,54,29.94,29.82,5,1,5,0.00
2013-8-29,81.3,71.8,66.7,71.0,67.8,64.3,98,88,71,29.95,29.73,10,4,10,0.61
2013-8-30,72.0,67.3,60.6,69.7,64.3,59.4,99,91,74,29.84,29.70,12,4,12,0.71
2013-8-31,81.1,68.6,55.6,65.8,61.5,55.3,99,81,52,29.83,29.64,7,2,7,0.11
2013-9-1,71.8,64.2,54.7,64.2,61.0,54.4,99,90,68,29.82,29.57,7,2,7,0.43
2013-9-2,57.0,52.0,46.0,54.2,50.2,45.7,99,94,79,29.94,29.82,7,2,7,0.14
2013-9-3,72.5,63.2,42.6,57.0,53.9,42.4,99,72,52,29.94,29.81,4,1,4,0.00
2013-9-4,66.2,59.3,46.4,59.2,51.3,41.2,95,76,49,30.08,29.85,13,3,13,0.00
2013-9-5,73.8,59.4,42.8,54.2,48.3,42.5,99,71,39,30.17,30.03,6,2,6,0.00
2013-9-6,80.8,68.9,57.2,69.5,62.1,51.8,93,79,62,30.03,29.77,10,4,10,0.00
2013-9-7,80.4,72.4,62.8,70.6,65.4,61.0,96,79,67,29.86,29.76,11,2,11,0.00
2013-9-8,70.3,59.8,45.9,55.5,51.4,45.6,99,76,50,30.04,29.84,7,2,7,0.00
2013-9-9,75.4,66.8,60.1,70.3,64.9,52.8,99,93,74,29.84,29.55,11,3,13,0.05
2013-9-10,70.2,67.4,67.1,69.9,67.1,66.8,99,99,99,29.65,29.59,2,0,2,0.00
2013-9-11,77.7,65.9,46.0,66.8,59.7,26.9,99,82,47,30.27,29.65,9,2,9,0.02
2013-9-12,59.0,54.0,46.6,56.0,50.0,43.8,99,87,71,30.17,29.97,14,3,14,0.01
2013-9-13,63.0,50.1,38.3,49.9,43.6,38.0,99,80,51,30.22,30.05,8,1,8,0.00
2013-9-14,68.4,51.0,43.3,50.8,44.7,41.0,96,81,50,30.06,29.93,10,3,10,0.00